createdAt,value
2018-12-25T00:01:06.444Z,3.43
2018-12-25T00:03:50.425Z,4.07
2018-12-25T00:06:31.528Z,3.67
2018-12-25T00:09:11.988Z,3.77
2018-12-25T00:14:31.947Z,4.07
2018-12-25T00:17:12.319Z,3.70
2018-12-25T00:19:52.935Z,3.80
2018-12-25T00:22:34.019Z,3.60
2018-12-25T00:25:14.560Z,4.00
2018-12-25T00:27:55.391Z,4.77
2018-12-25T00:30:36.395Z,4.43
2018-12-25T00:33:17.037Z,3.97
2018-12-25T00:38:43.384Z,3.43
2018-12-25T00:41:23.994Z,3.90
2018-12-25T00:44:08.119Z,3.97
2018-12-25T00:46:48.988Z,4.13
2018-12-25T00:49:29.639Z,4.07
2018-12-25T00:52:10.439Z,4.63
2018-12-25T00:54:51.320Z,4.93
2018-12-25T00:57:31.952Z,3.90
2018-12-25T01:00:12.720Z,3.83
2018-12-25T01:02:54.259Z,4.13
2018-12-25T01:05:35.006Z,3.70
2018-12-25T01:08:16.470Z,3.83
2018-12-25T01:10:57.015Z,4.17
2018-12-25T01:13:38.048Z,4.43
2018-12-25T01:16:18.557Z,5.03
2018-12-25T01:18:59.836Z,7.13
2018-12-25T01:21:40.849Z,5.40
2018-12-25T01:24:21.881Z,6.10
2018-12-25T01:29:46.320Z,5.37
2018-12-25T01:32:26.831Z,4.50
2018-12-25T01:35:07.452Z,4.90
2018-12-25T01:37:48.191Z,5.03
2018-12-25T01:40:29.337Z,5.17
2018-12-25T01:46:01.968Z,4.90
2018-12-25T01:48:43.211Z,4.93
2018-12-25T01:51:23.716Z,5.57
2018-12-25T01:54:08.206Z,5.37
2018-12-25T01:56:48.739Z,5.57
2018-12-25T01:59:29.605Z,5.57
2018-12-25T02:02:10.171Z,5.63
2018-12-25T02:04:53.908Z,4.77
2018-12-25T02:07:34.215Z,8.00
2018-12-25T02:10:14.737Z,5.57
2018-12-25T02:12:55.718Z,5.30
2018-12-25T02:15:37.606Z,5.80
2018-12-25T02:18:17.588Z,5.20
2018-12-25T02:20:58.419Z,6.43
2018-12-25T02:23:39.155Z,5.77
2018-12-25T02:26:20.044Z,6.13
2018-12-25T02:29:42.473Z,6.87
2018-12-25T02:32:18.501Z,7.40
2018-12-25T02:35:19.468Z,6.67
2018-12-25T02:40:33.036Z,6.33
2018-12-25T02:45:57.735Z,6.63
2018-12-25T02:48:39.018Z,6.43
2018-12-25T02:51:24.139Z,6.50
2018-12-25T02:56:48.452Z,6.87
2018-12-25T02:59:30.037Z,7.13
2018-12-25T03:02:11.246Z,8.97
2018-12-25T03:04:51.645Z,9.73
2018-12-25T03:07:33.026Z,7.67
2018-12-25T03:10:13.951Z,8.03
2018-12-25T03:12:55.039Z,7.70
2018-12-25T03:15:36.056Z,7.43
2018-12-25T03:18:20.277Z,7.10
2018-12-25T03:21:00.514Z,7.67
2018-12-25T03:23:41.984Z,7.90
2018-12-25T03:26:25.502Z,8.60
2018-12-25T03:29:07.264Z,8.37
2018-12-25T03:31:48.266Z,9.50
2018-12-25T03:34:29.092Z,9.37
2018-12-25T03:37:09.700Z,8.90
2018-12-25T03:39:51.130Z,8.33
2018-12-25T03:42:32.004Z,7.93
2018-12-25T03:45:12.639Z,9.03
2018-12-25T03:47:53.277Z,7.63
2018-12-25T03:50:34.919Z,8.20
2018-12-25T03:53:15.556Z,7.47
2018-12-25T03:55:56.358Z,7.37
2018-12-25T03:58:37.302Z,8.37
2018-12-25T04:01:18.481Z,8.00
2018-12-25T04:03:59.564Z,8.83
2018-12-25T04:06:39.874Z,8.10
2018-12-25T04:09:20.603Z,8.23
2018-12-25T04:12:01.864Z,9.97
2018-12-25T04:17:27.879Z,9.83
2018-12-25T04:20:08.744Z,10.33
2018-12-25T04:22:49.094Z,10.70
2018-12-25T04:25:30.658Z,9.47
2018-12-25T04:28:11.505Z,8.33
2018-12-25T04:30:52.389Z,9.53
2018-12-25T04:33:33.780Z,8.37
2018-12-25T04:36:14.682Z,9.73
2018-12-25T04:38:55.484Z,7.57
2018-12-25T04:41:36.281Z,8.50
2018-12-25T04:44:17.698Z,8.90
2018-12-25T04:46:58.667Z,9.27
2018-12-25T04:49:39.172Z,8.67
2018-12-25T04:52:20.916Z,11.03
2018-12-25T04:55:01.993Z,9.93
2018-12-25T04:57:43.724Z,8.90
2018-12-25T05:00:24.531Z,10.40
2018-12-25T05:03:05.071Z,9.70
2018-12-25T05:05:45.631Z,9.90
2018-12-25T05:08:26.208Z,11.00
2018-12-25T05:13:54.597Z,9.73
2018-12-25T05:16:36.128Z,8.07
2018-12-25T05:19:16.841Z,8.97
2018-12-25T05:21:57.662Z,8.77
2018-12-25T05:24:39.218Z,11.20
2018-12-25T05:27:20.111Z,9.77
2018-12-25T05:30:00.726Z,9.27
2018-12-25T05:32:40.932Z,9.00
2018-12-25T05:35:21.900Z,9.20
2018-12-25T05:38:02.357Z,10.50
2018-12-25T05:40:42.946Z,10.53
2018-12-25T05:43:23.739Z,14.77
2018-12-25T05:46:04.410Z,12.87
2018-12-25T05:48:45.038Z,11.50
2018-12-25T05:51:25.926Z,13.33
2018-12-25T05:54:07.222Z,10.97
2018-12-25T05:56:47.986Z,11.60
2018-12-25T05:59:28.344Z,12.90
2018-12-25T06:04:53.404Z,11.33
2018-12-25T06:07:34.534Z,11.03
2018-12-25T06:10:15.212Z,11.87
2018-12-25T06:12:55.919Z,11.77
2018-12-25T06:15:36.522Z,11.83
2018-12-25T06:18:18.345Z,12.87
2018-12-25T06:20:58.700Z,12.47
2018-12-25T06:23:39.525Z,11.13
2018-12-25T06:26:19.975Z,12.13
2018-12-25T06:29:01.323Z,13.07
2018-12-25T06:31:42.187Z,11.53
2018-12-25T06:34:22.594Z,13.17
2018-12-25T06:37:03.193Z,13.27
2018-12-25T06:39:43.954Z,13.07
2018-12-25T06:42:24.859Z,13.17
2018-12-25T06:45:05.855Z,12.70
2018-12-25T06:47:46.715Z,12.57
2018-12-25T06:50:27.750Z,12.73
2018-12-25T06:53:08.285Z,12.50
2018-12-25T06:55:49.426Z,13.63
2018-12-25T06:58:30.163Z,12.63
2018-12-25T07:01:10.675Z,11.73
2018-12-25T07:03:51.685Z,11.73
2018-12-25T07:06:33.220Z,11.93
2018-12-25T07:09:16.984Z,12.73
2018-12-25T07:12:01.148Z,12.37
2018-12-25T07:14:42.123Z,11.37
2018-12-25T07:17:23.079Z,12.57
2018-12-25T07:20:06.853Z,13.97
2018-12-25T07:22:47.562Z,17.43
2018-12-25T07:25:28.188Z,14.37
2018-12-25T07:28:09.278Z,14.20
2018-12-25T07:30:50.462Z,13.67
2018-12-25T07:33:31.469Z,12.77
2018-12-25T07:36:11.980Z,13.23
2018-12-25T07:38:52.804Z,14.57
2018-12-25T07:41:33.241Z,17.27
2018-12-25T07:44:14.099Z,19.93
2018-12-25T07:46:55.273Z,16.13
2018-12-25T07:49:38.485Z,15.67
2018-12-25T07:52:19.546Z,15.50
2018-12-25T07:55:00.181Z,14.70
2018-12-25T07:57:41.281Z,14.73
2018-12-25T08:00:23.061Z,16.97
2018-12-25T08:03:05.826Z,17.63
2018-12-25T08:05:46.380Z,16.43
2018-12-25T08:08:27.248Z,18.57
2018-12-25T08:11:07.634Z,20.33
2018-12-25T08:13:48.770Z,19.70
2018-12-25T08:16:29.038Z,21.90
2018-12-25T08:19:09.672Z,21.83
2018-12-25T08:21:50.695Z,17.50
2018-12-25T08:27:16.250Z,17.83
2018-12-25T08:29:57.484Z,22.10
2018-12-25T08:32:38.550Z,22.23
2018-12-25T08:35:19.350Z,19.93
2018-12-25T08:38:00.408Z,19.73
2018-12-25T08:40:41.064Z,22.83
2018-12-25T08:43:21.704Z,66.83
2018-12-25T08:46:02.260Z,22.40
2018-12-25T08:48:42.854Z,19.80
2018-12-25T08:54:09.296Z,21.70
2018-12-25T08:56:52.787Z,34.20
2018-12-25T08:59:33.237Z,25.73
2018-12-25T09:02:13.768Z,28.27
2018-12-25T09:04:54.287Z,37.87
2018-12-25T09:07:34.823Z,23.87
2018-12-25T09:10:15.756Z,21.90
2018-12-25T09:12:56.739Z,23.50
2018-12-25T09:15:38.628Z,18.23
2018-12-25T09:18:19.478Z,20.03
2018-12-25T09:21:00.186Z,17.67
2018-12-25T09:23:40.806Z,18.57
2018-12-25T09:26:21.682Z,16.97
2018-12-25T09:29:02.219Z,20.47
2018-12-25T09:31:43.147Z,18.60
2018-12-25T09:34:23.955Z,18.60
2018-12-25T09:39:50.597Z,18.70
2018-12-25T09:42:31.913Z,18.50
2018-12-25T09:51:20.161Z,20.57
2018-12-25T09:54:01.309Z,19.07
2018-12-25T09:56:42.005Z,17.33
2018-12-25T09:59:22.936Z,20.70
2018-12-25T10:02:04.701Z,21.17
2018-12-25T10:04:45.387Z,20.53
2018-12-25T10:07:26.436Z,20.43
2018-12-25T10:10:07.946Z,25.43
2018-12-25T10:12:49.811Z,25.83
2018-12-25T10:15:30.939Z,30.13
2018-12-25T10:21:00.399Z,24.20
2018-12-25T10:23:42.272Z,22.10
2018-12-25T10:26:23.381Z,23.90
2018-12-25T10:29:04.902Z,36.83
2018-12-25T10:31:46.067Z,33.17
2018-12-25T10:34:27.008Z,34.80
2018-12-25T10:37:11.100Z,22.67
2018-12-25T10:39:52.700Z,31.87
2018-12-25T10:42:34.671Z,32.00
2018-12-25T10:45:15.164Z,33.20
2018-12-25T10:47:55.997Z,21.90
2018-12-25T10:50:39.318Z,27.17
2018-12-25T10:53:20.959Z,21.43
2018-12-25T10:56:01.623Z,27.27
2018-12-25T10:58:42.269Z,20.13
2018-12-25T11:01:22.856Z,16.83
2018-12-25T11:04:04.189Z,19.77
2018-12-25T11:06:45.520Z,20.60
2018-12-25T11:09:27.444Z,16.07
2018-12-25T11:12:09.277Z,19.10
2018-12-25T11:14:51.274Z,38.33
2018-12-25T11:17:33.118Z,45.73
2018-12-25T11:20:15.738Z,46.67
2018-12-25T11:22:57.950Z,22.73
2018-12-25T11:25:39.876Z,26.93
2018-12-25T11:28:20.736Z,28.13
2018-12-25T11:30:50.179Z,20.00
2018-12-25T11:33:52.810Z,56.77
2018-12-25T11:36:20.934Z,20.17
2018-12-25T11:39:01.828Z,17.00
2018-12-25T11:41:42.920Z,17.83
2018-12-25T11:44:23.170Z,15.70
2018-12-25T11:47:04.124Z,69.10
2018-12-25T11:49:45.292Z,36.40
2018-12-25T11:52:28.550Z,66.77
2018-12-25T11:55:08.137Z,69.73
2018-12-25T11:57:49.477Z,22.50
2018-12-25T12:00:31.463Z,20.53
2018-12-25T12:03:13.354Z,17.60
2018-12-25T12:05:55.665Z,20.43
2018-12-25T12:08:37.386Z,22.33
2018-12-25T12:11:18.293Z,20.83
2018-12-25T12:13:58.841Z,18.57
2018-12-25T12:16:41.814Z,18.20
2018-12-25T12:19:22.189Z,19.50
2018-12-25T12:22:03.743Z,17.33
2018-12-25T12:24:45.720Z,16.13
2018-12-25T12:27:27.368Z,18.30
2018-12-25T12:30:07.903Z,14.97
2018-12-25T12:32:51.345Z,13.83
2018-12-25T12:35:27.123Z,13.03
2018-12-25T12:38:14.906Z,16.60
2018-12-25T12:41:02.671Z,15.63
2018-12-25T12:43:50.709Z,18.57
2018-12-25T12:46:39.146Z,16.57
2018-12-25T12:49:46.086Z,18.20
2018-12-25T12:52:34.107Z,18.30
2018-12-25T12:55:21.906Z,19.13
2018-12-25T12:58:10.292Z,18.87
2018-12-25T13:00:59.770Z,23.43
2018-12-25T13:03:48.353Z,20.83
2018-12-25T13:06:55.381Z,23.27
2018-12-25T13:09:59.235Z,19.60
2018-12-25T13:12:35.182Z,20.03
2018-12-25T13:15:23.227Z,20.97
2018-12-25T13:18:11.379Z,21.40
2018-12-25T13:21:20.095Z,21.20
2018-12-25T13:24:21.955Z,20.23
2018-12-25T13:27:11.447Z,20.30
2018-12-25T13:30:00.788Z,24.77
2018-12-25T13:32:38.079Z,21.47
2018-12-25T13:35:39.379Z,55.43
2018-12-25T13:38:07.974Z,31.77
2018-12-25T13:40:48.861Z,34.33
2018-12-25T13:43:29.837Z,20.73
2018-12-25T13:48:54.499Z,22.90
2018-12-25T13:51:35.964Z,19.63
2018-12-25T13:54:17.555Z,21.77
2018-12-25T13:56:59.047Z,22.67
2018-12-25T14:02:43.360Z,57.73
2018-12-25T14:05:24.886Z,39.53
2018-12-25T14:08:06.666Z,26.47
2018-12-25T14:10:47.277Z,33.80
2018-12-25T14:13:27.779Z,26.37
2018-12-25T14:16:09.441Z,25.07
2018-12-25T14:18:50.185Z,28.23
2018-12-25T14:21:30.927Z,25.73
2018-12-25T14:24:11.670Z,28.80
2018-12-25T14:26:53.249Z,23.03
2018-12-25T14:29:35.292Z,23.83
2018-12-25T14:32:17.136Z,26.00
2018-12-25T14:34:57.945Z,22.73
2018-12-25T14:40:20.530Z,27.37
2018-12-25T14:45:46.088Z,22.37
2018-12-25T14:48:27.099Z,21.17
2018-12-25T14:51:08.637Z,20.80
2018-12-25T14:53:50.638Z,20.57
2018-12-25T14:56:32.867Z,20.83
2018-12-25T14:59:13.641Z,20.63
2018-12-25T15:01:54.133Z,27.27
2018-12-25T15:04:34.640Z,29.27
2018-12-25T15:07:16.521Z,24.60
2018-12-25T15:09:58.345Z,19.13
2018-12-25T15:12:38.946Z,19.13
2018-12-25T15:15:19.557Z,22.27
2018-12-25T15:18:00.338Z,27.70
2018-12-25T15:20:41.281Z,23.03
2018-12-25T15:23:28.138Z,21.27
2018-12-25T15:26:06.173Z,29.10
2018-12-25T15:29:08.943Z,25.37
2018-12-25T15:31:43.433Z,30.87
2018-12-25T15:34:31.188Z,23.20
2018-12-25T15:37:12.455Z,22.17
2018-12-25T15:39:54.595Z,28.30
2018-12-25T15:42:35.077Z,18.83
2018-12-25T15:45:19.924Z,19.70
2018-12-25T15:48:00.821Z,18.27
2018-12-25T15:50:41.427Z,17.60
2018-12-25T15:53:23.072Z,18.10
2018-12-25T15:56:04.206Z,33.20
2018-12-25T16:01:29.113Z,28.30
2018-12-25T16:04:12.340Z,23.47
2018-12-25T16:06:52.836Z,33.23
2018-12-25T16:09:34.227Z,55.57
2018-12-25T16:12:14.786Z,64.67
2018-12-25T16:17:39.765Z,20.87
2018-12-25T16:20:20.397Z,18.33
2018-12-25T16:23:01.483Z,18.07
2018-12-25T16:25:43.456Z,17.77
2018-12-25T16:28:24.231Z,19.90
2018-12-25T16:31:05.537Z,19.20
2018-12-25T16:33:47.099Z,24.93
2018-12-25T16:36:27.633Z,27.30
2018-12-25T16:41:52.536Z,20.37
2018-12-25T16:44:33.423Z,18.03
2018-12-25T16:47:14.922Z,16.77
2018-12-25T16:49:57.158Z,15.80
2018-12-25T16:52:37.759Z,16.23
2018-12-25T16:58:03.868Z,16.17
2018-12-25T17:00:44.926Z,22.60
2018-12-25T17:03:26.246Z,21.87
2018-12-25T17:06:08.321Z,17.53
2018-12-25T17:08:49.457Z,14.27
2018-12-25T17:11:30.244Z,13.17
2018-12-25T17:14:11.931Z,13.90
2018-12-25T17:16:52.619Z,13.53
2018-12-25T17:19:33.347Z,17.50
2018-12-25T17:22:13.859Z,12.80
2018-12-25T17:24:54.883Z,15.13
2018-12-25T17:27:37.089Z,19.60
2018-12-25T17:30:18.009Z,16.90
2018-12-25T17:32:58.557Z,16.30
2018-12-25T17:35:39.264Z,14.40
2018-12-25T17:38:20.526Z,17.23
2018-12-25T17:41:02.482Z,14.63
2018-12-25T17:43:44.567Z,17.23
2018-12-25T17:46:27.802Z,18.37
2018-12-25T17:49:08.560Z,16.37
2018-12-25T17:51:49.467Z,17.20
2018-12-25T17:54:30.790Z,15.80
2018-12-25T17:57:11.738Z,14.33
2018-12-25T17:59:52.634Z,18.90
2018-12-25T18:02:33.926Z,17.77
2018-12-25T18:05:14.331Z,18.73
2018-12-25T18:07:55.099Z,20.23
2018-12-25T18:10:36.813Z,18.47
2018-12-25T18:13:17.296Z,20.27
2018-12-25T18:15:57.906Z,20.60
2018-12-25T18:18:39.756Z,19.93
2018-12-25T18:21:21.673Z,18.80
2018-12-25T18:24:03.730Z,21.50
2018-12-25T18:26:44.724Z,19.13
2018-12-25T18:29:25.702Z,19.90
2018-12-25T18:34:50.321Z,21.73
2018-12-25T18:37:32.118Z,25.07
2018-12-25T18:40:12.353Z,22.13
2018-12-25T18:42:53.384Z,22.43
2018-12-25T18:45:34.073Z,25.83
2018-12-25T18:48:15.254Z,24.80
2018-12-25T18:50:56.025Z,23.70
2018-12-25T18:53:36.866Z,21.43
2018-12-25T18:56:17.496Z,23.77
2018-12-25T18:58:59.015Z,24.17
2018-12-25T19:01:41.235Z,25.93
2018-12-25T19:04:22.709Z,28.73
2018-12-25T19:07:03.484Z,26.67
2018-12-25T19:09:44.690Z,28.57
2018-12-25T19:12:25.651Z,32.83
2018-12-25T19:15:06.455Z,28.90
2018-12-25T19:20:32.198Z,29.67
2018-12-25T19:23:13.223Z,29.97
2018-12-25T19:28:32.786Z,30.33
2018-12-25T19:33:57.831Z,35.60
2018-12-25T19:39:22.734Z,36.80
2018-12-25T19:42:03.852Z,32.03
2018-12-25T19:44:44.585Z,33.30
2018-12-25T19:47:26.215Z,35.53
2018-12-25T19:50:07.925Z,35.90
2018-12-25T19:52:48.425Z,33.43
2018-12-25T19:55:32.686Z,34.13
2018-12-25T19:58:12.906Z,36.00
2018-12-25T20:00:53.688Z,35.00
2018-12-25T20:03:34.462Z,39.83
2018-12-25T20:06:16.017Z,39.73
2018-12-25T20:09:00.032Z,39.97
2018-12-25T20:11:41.919Z,34.47
2018-12-25T20:14:22.556Z,34.83
2018-12-25T20:17:03.201Z,33.97
2018-12-25T20:19:44.035Z,37.07
2018-12-25T20:22:51.158Z,31.20
2018-12-25T20:25:59.655Z,31.20
2018-12-25T20:29:06.738Z,30.97
2018-12-25T20:32:13.840Z,33.77
2018-12-25T20:35:21.687Z,31.60
2018-12-25T20:40:47.350Z,32.63
2018-12-25T20:43:29.260Z,32.60
2018-12-25T20:46:12.769Z,32.90
2018-12-25T20:48:53.492Z,33.40
2018-12-25T20:51:34.935Z,37.20
2018-12-25T20:54:17.005Z,35.07
2018-12-25T20:56:58.085Z,35.47
2018-12-25T20:59:39.112Z,39.03
2018-12-25T21:02:19.883Z,38.43
2018-12-25T21:05:01.700Z,37.67
2018-12-25T21:07:42.350Z,36.57
2018-12-25T21:10:23.164Z,36.43
2018-12-25T21:15:48.043Z,34.43
2018-12-25T21:21:12.293Z,36.73
2018-12-25T21:26:37.631Z,35.13
2018-12-25T21:29:18.683Z,32.80
2018-12-25T21:31:59.919Z,30.80
2018-12-25T21:34:41.464Z,34.20
2018-12-25T21:37:23.115Z,30.40
2018-12-25T21:40:04.884Z,32.07
2018-12-25T21:42:45.754Z,31.87
2018-12-25T21:47:58.476Z,28.47
2018-12-25T21:50:39.886Z,33.03
2018-12-25T21:53:21.204Z,31.00
2018-12-25T21:56:02.986Z,34.57
2018-12-25T21:58:45.041Z,30.43
2018-12-25T22:01:26.547Z,28.63
2018-12-25T22:04:08.325Z,33.70
2018-12-25T22:06:50.247Z,31.20
2018-12-25T22:09:31.980Z,30.63
2018-12-25T22:12:13.449Z,31.37
2018-12-25T22:14:54.697Z,33.83
2018-12-25T22:17:35.889Z,32.00
2018-12-25T22:20:17.835Z,30.00
2018-12-25T22:22:59.291Z,29.47
2018-12-25T22:25:40.807Z,30.13
2018-12-25T22:28:22.411Z,31.27
2018-12-25T22:33:54.436Z,29.83
2018-12-25T22:36:35.260Z,29.43
2018-12-25T22:39:15.824Z,29.73
2018-12-25T22:41:58.553Z,31.60
2018-12-25T22:44:38.688Z,28.00
2018-12-25T22:47:19.605Z,27.70
2018-12-25T22:52:46.309Z,32.03
2018-12-25T22:55:35.558Z,31.40
2018-12-25T22:58:10.014Z,27.90
2018-12-25T23:00:51.151Z,26.70
2018-12-25T23:03:32.564Z,24.67
2018-12-25T23:06:14.091Z,28.87
2018-12-25T23:08:55.506Z,30.03
2018-12-25T23:17:06.570Z,29.53
2018-12-25T23:19:47.247Z,33.30
2018-12-25T23:22:28.193Z,30.43
2018-12-25T23:25:08.923Z,31.87
2018-12-25T23:27:52.700Z,26.47
2018-12-25T23:30:32.862Z,31.67
2018-12-25T23:33:13.755Z,33.10
2018-12-25T23:35:54.696Z,24.17
2018-12-25T23:38:35.267Z,23.47
2018-12-25T23:41:16.056Z,21.20
2018-12-25T23:43:56.999Z,22.43
2018-12-25T23:46:37.715Z,19.90
2018-12-25T23:49:18.538Z,25.10
2018-12-25T23:51:59.513Z,24.33
2018-12-25T23:54:41.437Z,25.30
2018-12-25T23:57:23.090Z,23.57
